sensor_id;sensor_type;location;lat;lon;timestamp;P1;durP1;ratioP1;P2;durP2;ratioP2
27543;SDS011;17996;51.056;3.656;2024-03-29T00:00:39;12.70;;;3.00;;
27543;SDS011;17996;51.056;3.656;2024-03-29T00:33:43;13.55;;;2.10;;
27543;SDS011;17996;51.056;3.656;2024-03-29T00:36:12;13.82;;;3.35;;
27543;SDS011;17996;51.056;3.656;2024-03-29T00:38:39;9.27;;;2.05;;
27543;SDS011;17996;51.056;3.656;2024-03-29T00:41:06;6.68;;;2.00;;
27543;SDS011;17996;51.056;3.656;2024-03-29T00:43:33;6.72;;;2.25;;
27543;SDS011;17996;51.056;3.656;2024-03-29T00:46:02;13.63;;;2.28;;
27543;SDS011;17996;51.056;3.656;2024-03-29T00:50:59;5.47;;;1.58;;
27543;SDS011;17996;51.056;3.656;2024-03-29T00:53:35;17.55;;;3.33;;
27543;SDS011;17996;51.056;3.656;2024-03-29T00:58:33;13.93;;;2.53;;
27543;SDS011;17996;51.056;3.656;2024-03-29T01:01:01;11.30;;;2.17;;
27543;SDS011;17996;51.056;3.656;2024-03-29T01:03:28;7.80;;;2.28;;
27543;SDS011;17996;51.056;3.656;2024-03-29T01:08:28;6.45;;;1.58;;
27543;SDS011;17996;51.056;3.656;2024-03-29T01:10:55;11.40;;;1.95;;
27543;SDS011;17996;51.056;3.656;2024-03-29T01:13:24;9.23;;;2.15;;
27543;SDS011;17996;51.056;3.656;2024-03-29T01:15:56;9.38;;;1.95;;
27543;SDS011;17996;51.056;3.656;2024-03-29T01:18:22;12.32;;;1.77;;
27543;SDS011;17996;51.056;3.656;2024-03-29T01:20:51;17.63;;;3.00;;
27543;SDS011;17996;51.056;3.656;2024-03-29T01:23:20;8.55;;;1.85;;
27543;SDS011;17996;51.056;3.656;2024-03-29T01:25:48;12.75;;;2.20;;
27543;SDS011;17996;51.056;3.656;2024-03-29T01:30:51;9.63;;;2.13;;
27543;SDS011;17996;51.056;3.656;2024-03-29T01:33:20;5.88;;;1.50;;
27543;SDS011;17996;51.056;3.656;2024-03-29T01:35:48;13.13;;;1.90;;
27543;SDS011;17996;51.056;3.656;2024-03-29T01:38:15;9.02;;;1.70;;
27543;SDS011;17996;51.056;3.656;2024-03-29T01:40:40;7.80;;;1.73;;
27543;SDS011;17996;51.056;3.656;2024-03-29T01:45:35;5.13;;;1.58;;
27543;SDS011;17996;51.056;3.656;2024-03-29T01:48:05;4.10;;;1.15;;
27543;SDS011;17996;51.056;3.656;2024-03-29T01:50:32;5.18;;;1.75;;
27543;SDS011;17996;51.056;3.656;2024-03-29T01:55:32;4.10;;;1.23;;
27543;SDS011;17996;51.056;3.656;2024-03-29T02:03:02;4.55;;;1.17;;
27543;SDS011;17996;51.056;3.656;2024-03-29T02:08:00;3.35;;;1.35;;
27543;SDS011;17996;51.056;3.656;2024-03-29T02:10:27;4.55;;;1.25;;
27543;SDS011;17996;51.056;3.656;2024-03-29T02:12:55;3.10;;;1.40;;
27543;SDS011;17996;51.056;3.656;2024-03-29T02:15:22;5.38;;;1.02;;
27543;SDS011;17996;51.056;3.656;2024-03-29T02:20:18;5.78;;;1.10;;
27543;SDS011;17996;51.056;3.656;2024-03-29T02:22:46;5.10;;;1.00;;
27543;SDS011;17996;51.056;3.656;2024-03-29T02:27:48;5.78;;;1.35;;
27543;SDS011;17996;51.056;3.656;2024-03-29T02:32:44;2.80;;;1.10;;
27543;SDS011;17996;51.056;3.656;2024-03-29T02:35:10;6.32;;;1.00;;
27543;SDS011;17996;51.056;3.656;2024-03-29T02:37:37;4.57;;;1.45;;
27543;SDS011;17996;51.056;3.656;2024-03-29T02:40:03;1.45;;;0.73;;
27543;SDS011;17996;51.056;3.656;2024-03-29T02:42:32;4.30;;;1.08;;
27543;SDS011;17996;51.056;3.656;2024-03-29T02:44:58;8.30;;;1.30;;
27543;SDS011;17996;51.056;3.656;2024-03-29T02:47:26;3.58;;;1.02;;
27543;SDS011;17996;51.056;3.656;2024-03-29T02:49:53;3.67;;;1.00;;
27543;SDS011;17996;51.056;3.656;2024-03-29T02:52:25;5.65;;;1.20;;
27543;SDS011;17996;51.056;3.656;2024-03-29T02:54:54;2.58;;;0.93;;
27543;SDS011;17996;51.056;3.656;2024-03-29T02:57:21;2.58;;;1.02;;
27543;SDS011;17996;51.056;3.656;2024-03-29T02:59:48;2.30;;;0.80;;
27543;SDS011;17996;51.056;3.656;2024-03-29T03:02:17;3.85;;;1.00;;
27543;SDS011;17996;51.056;3.656;2024-03-29T03:04:42;2.90;;;1.10;;
27543;SDS011;17996;51.056;3.656;2024-03-29T03:07:08;1.40;;;0.65;;
27543;SDS011;17996;51.056;3.656;2024-03-29T03:12:40;2.97;;;0.90;;
27543;SDS011;17996;51.056;3.656;2024-03-29T03:15:06;2.10;;;0.82;;
27543;SDS011;17996;51.056;3.656;2024-03-29T03:17:34;3.78;;;0.73;;
27543;SDS011;17996;51.056;3.656;2024-03-29T03:19:59;2.03;;;1.08;;
27543;SDS011;17996;51.056;3.656;2024-03-29T03:22:25;0.80;;;0.57;;
27543;SDS011;17996;51.056;3.656;2024-03-29T03:24:54;3.33;;;0.82;;
27543;SDS011;17996;51.056;3.656;2024-03-29T03:27:20;3.17;;;1.08;;
27543;SDS011;17996;51.056;3.656;2024-03-29T03:29:49;1.77;;;0.93;;
27543;SDS011;17996;51.056;3.656;2024-03-29T03:32:14;4.85;;;1.10;;
27543;SDS011;17996;51.056;3.656;2024-03-29T03:34:43;4.38;;;1.33;;
27543;SDS011;17996;51.056;3.656;2024-03-29T03:37:12;3.35;;;0.93;;
27543;SDS011;17996;51.056;3.656;2024-03-29T03:39:39;2.70;;;1.02;;
27543;SDS011;17996;51.056;3.656;2024-03-29T03:42:05;2.90;;;0.90;;
27543;SDS011;17996;51.056;3.656;2024-03-29T03:44:31;3.53;;;1.02;;
27543;SDS011;17996;51.056;3.656;2024-03-29T03:46:57;4.78;;;1.55;;
27543;SDS011;17996;51.056;3.656;2024-03-29T03:49:26;2.22;;;1.20;;
27543;SDS011;17996;51.056;3.656;2024-03-29T03:51:51;5.57;;;1.42;;
27543;SDS011;17996;51.056;3.656;2024-03-29T03:54:18;4.45;;;1.27;;
27543;SDS011;17996;51.056;3.656;2024-03-29T03:59:16;2.72;;;1.10;;
27543;SDS011;17996;51.056;3.656;2024-03-29T04:04:14;5.15;;;1.63;;
27543;SDS011;17996;51.056;3.656;2024-03-29T04:06:40;6.00;;;1.15;;
27543;SDS011;17996;51.056;3.656;2024-03-29T04:09:06;5.68;;;1.65;;
27543;SDS011;17996;51.056;3.656;2024-03-29T04:11:42;6.88;;;1.30;;
27543;SDS011;17996;51.056;3.656;2024-03-29T04:16:40;7.40;;;2.58;;
27543;SDS011;17996;51.056;3.656;2024-03-29T04:19:06;4.95;;;1.38;;
27543;SDS011;17996;51.056;3.656;2024-03-29T04:21:32;4.50;;;1.52;;
27543;SDS011;17996;51.056;3.656;2024-03-29T04:23:59;3.40;;;1.30;;
27543;SDS011;17996;51.056;3.656;2024-03-29T04:26:25;5.05;;;1.40;;
27543;SDS011;17996;51.056;3.656;2024-03-29T04:28:54;4.43;;;1.10;;
27543;SDS011;17996;51.056;3.656;2024-03-29T04:31:22;6.60;;;1.50;;
27543;SDS011;17996;51.056;3.656;2024-03-29T04:33:48;6.78;;;1.27;;
27543;SDS011;17996;51.056;3.656;2024-03-29T04:36:16;4.65;;;1.33;;
27543;SDS011;17996;51.056;3.656;2024-03-29T04:38:48;3.92;;;1.20;;
27543;SDS011;17996;51.056;3.656;2024-03-29T04:41:13;3.88;;;1.35;;
27543;SDS011;17996;51.056;3.656;2024-03-29T04:43:40;3.75;;;1.58;;
27543;SDS011;17996;51.056;3.656;2024-03-29T04:46:07;4.30;;;1.27;;
27543;SDS011;17996;51.056;3.656;2024-03-29T04:51:03;7.15;;;1.67;;
27543;SDS011;17996;51.056;3.656;2024-03-29T04:53:29;5.82;;;1.58;;
27543;SDS011;17996;51.056;3.656;2024-03-29T04:56:01;2.30;;;1.15;;
27543;SDS011;17996;51.056;3.656;2024-03-29T05:03:25;5.15;;;1.35;;
27543;SDS011;17996;51.056;3.656;2024-03-29T05:05:59;2.83;;;1.08;;
27543;SDS011;17996;51.056;3.656;2024-03-29T05:08:24;3.45;;;1.30;;
27543;SDS011;17996;51.056;3.656;2024-03-29T05:10:51;3.45;;;1.20;;
27543;SDS011;17996;51.056;3.656;2024-03-29T05:13:18;4.85;;;1.70;;
27543;SDS011;17996;51.056;3.656;2024-03-29T05:15:48;4.88;;;1.35;;
27543;SDS011;17996;51.056;3.656;2024-03-29T05:18:15;7.22;;;2.47;;
27543;SDS011;17996;51.056;3.656;2024-03-29T05:20:40;3.05;;;1.20;;
27543;SDS011;17996;51.056;3.656;2024-03-29T05:23:12;3.78;;;1.20;;
27543;SDS011;17996;51.056;3.656;2024-03-29T05:28:10;6.00;;;1.10;;
27543;SDS011;17996;51.056;3.656;2024-03-29T05:30:36;3.50;;;1.40;;
27543;SDS011;17996;51.056;3.656;2024-03-29T05:33:03;4.80;;;1.02;;
27543;SDS011;17996;51.056;3.656;2024-03-29T05:35:33;2.65;;;1.27;;
27543;SDS011;17996;51.056;3.656;2024-03-29T05:40:30;4.00;;;1.20;;
27543;SDS011;17996;51.056;3.656;2024-03-29T05:45:32;4.93;;;0.98;;
27543;SDS011;17996;51.056;3.656;2024-03-29T05:48:00;2.60;;;1.42;;
27543;SDS011;17996;51.056;3.656;2024-03-29T05:50:29;3.67;;;1.23;;
27543;SDS011;17996;51.056;3.656;2024-03-29T05:52:54;2.72;;;1.27;;
27543;SDS011;17996;51.056;3.656;2024-03-29T05:55:23;2.78;;;1.13;;
27543;SDS011;17996;51.056;3.656;2024-03-29T05:57:49;1.42;;;1.27;;
27543;SDS011;17996;51.056;3.656;2024-03-29T06:00:17;2.15;;;1.13;;
27543;SDS011;17996;51.056;3.656;2024-03-29T06:02:42;3.85;;;1.20;;
27543;SDS011;17996;51.056;3.656;2024-03-29T06:05:14;3.00;;;1.48;;
27543;SDS011;17996;51.056;3.656;2024-03-29T06:07:39;3.03;;;1.15;;
27543;SDS011;17996;51.056;3.656;2024-03-29T06:10:05;4.55;;;1.27;;
27543;SDS011;17996;51.056;3.656;2024-03-29T06:12:36;2.55;;;1.20;;
27543;SDS011;17996;51.056;3.656;2024-03-29T06:15:03;4.55;;;1.20;;
27543;SDS011;17996;51.056;3.656;2024-03-29T06:17:49;3.97;;;1.23;;
27543;SDS011;17996;51.056;3.656;2024-03-29T06:20:17;5.47;;;1.35;;
27543;SDS011;17996;51.056;3.656;2024-03-29T06:22:46;3.47;;;1.38;;
27543;SDS011;17996;51.056;3.656;2024-03-29T06:30:16;4.82;;;1.58;;
27543;SDS011;17996;51.056;3.656;2024-03-29T06:32:43;7.32;;;1.42;;
27543;SDS011;17996;51.056;3.656;2024-03-29T06:35:13;3.55;;;1.25;;
27543;SDS011;17996;51.056;3.656;2024-03-29T06:37:39;2.38;;;1.40;;
27543;SDS011;17996;51.056;3.656;2024-03-29T06:40:05;4.20;;;1.60;;
27543;SDS011;17996;51.056;3.656;2024-03-29T06:42:35;7.05;;;1.58;;
27543;SDS011;17996;51.056;3.656;2024-03-29T06:45:01;5.15;;;1.30;;
27543;SDS011;17996;51.056;3.656;2024-03-29T06:47:29;3.72;;;1.52;;
27543;SDS011;17996;51.056;3.656;2024-03-29T06:52:24;3.75;;;2.50;;
27543;SDS011;17996;51.056;3.656;2024-03-29T06:54:56;2.88;;;1.50;;
27543;SDS011;17996;51.056;3.656;2024-03-29T06:57:23;2.33;;;1.40;;
27543;SDS011;17996;51.056;3.656;2024-03-29T06:59:52;4.43;;;1.35;;
27543;SDS011;17996;51.056;3.656;2024-03-29T07:02:20;5.40;;;2.80;;
27543;SDS011;17996;51.056;3.656;2024-03-29T07:04:46;3.60;;;1.63;;
27543;SDS011;17996;51.056;3.656;2024-03-29T07:07:15;1.20;;;1.10;;
27543;SDS011;17996;51.056;3.656;2024-03-29T07:14:37;3.15;;;2.15;;
27543;SDS011;17996;51.056;3.656;2024-03-29T07:17:05;3.42;;;1.70;;
27543;SDS011;17996;51.056;3.656;2024-03-29T07:22:03;4.35;;;1.55;;
27543;SDS011;17996;51.056;3.656;2024-03-29T07:24:30;6.57;;;1.70;;
27543;SDS011;17996;51.056;3.656;2024-03-29T07:26:56;3.65;;;1.65;;
27543;SDS011;17996;51.056;3.656;2024-03-29T07:29:25;3.10;;;1.50;;
27543;SDS011;17996;51.056;3.656;2024-03-29T07:31:51;3.70;;;1.45;;
27543;SDS011;17996;51.056;3.656;2024-03-29T07:34:20;2.92;;;1.42;;
27543;SDS011;17996;51.056;3.656;2024-03-29T07:36:52;2.10;;;1.15;;
27543;SDS011;17996;51.056;3.656;2024-03-29T07:39:19;1.77;;;1.30;;
27543;SDS011;17996;51.056;3.656;2024-03-29T07:41:45;2.25;;;1.20;;
27543;SDS011;17996;51.056;3.656;2024-03-29T07:44:13;8.30;;;1.63;;
27543;SDS011;17996;51.056;3.656;2024-03-29T07:46:48;4.43;;;1.50;;
27543;SDS011;17996;51.056;3.656;2024-03-29T07:49:16;3.60;;;1.30;;
27543;SDS011;17996;51.056;3.656;2024-03-29T07:51:48;6.78;;;1.83;;
27543;SDS011;17996;51.056;3.656;2024-03-29T07:56:45;2.47;;;1.20;;
27543;SDS011;17996;51.056;3.656;2024-03-29T07:59:12;3.45;;;1.30;;
27543;SDS011;17996;51.056;3.656;2024-03-29T08:01:40;5.28;;;1.52;;
27543;SDS011;17996;51.056;3.656;2024-03-29T08:04:08;4.40;;;1.27;;
27543;SDS011;17996;51.056;3.656;2024-03-29T08:06:42;1.83;;;1.05;;
27543;SDS011;17996;51.056;3.656;2024-03-29T08:09:09;3.95;;;1.08;;
27543;SDS011;17996;51.056;3.656;2024-03-29T08:11:39;2.20;;;1.20;;
27543;SDS011;17996;51.056;3.656;2024-03-29T08:14:05;3.92;;;1.40;;
27543;SDS011;17996;51.056;3.656;2024-03-29T08:16:35;3.53;;;1.70;;
27543;SDS011;17996;51.056;3.656;2024-03-29T08:19:01;4.13;;;1.83;;
27543;SDS011;17996;51.056;3.656;2024-03-29T08:21:27;4.50;;;1.48;;
27543;SDS011;17996;51.056;3.656;2024-03-29T08:23:53;2.90;;;1.80;;
27543;SDS011;17996;51.056;3.656;2024-03-29T08:26:22;5.03;;;2.38;;
27543;SDS011;17996;51.056;3.656;2024-03-29T08:28:51;2.57;;;1.83;;
27543;SDS011;17996;51.056;3.656;2024-03-29T08:31:17;6.57;;;1.98;;
27543;SDS011;17996;51.056;3.656;2024-03-29T08:33:44;3.88;;;1.58;;
27543;SDS011;17996;51.056;3.656;2024-03-29T08:36:11;4.15;;;1.60;;
27543;SDS011;17996;51.056;3.656;2024-03-29T08:38:38;6.20;;;2.22;;
27543;SDS011;17996;51.056;3.656;2024-03-29T08:41:07;5.25;;;2.03;;
27543;SDS011;17996;51.056;3.656;2024-03-29T08:43:33;5.55;;;2.00;;
27543;SDS011;17996;51.056;3.656;2024-03-29T08:46:00;6.53;;;2.10;;
27543;SDS011;17996;51.056;3.656;2024-03-29T08:48:29;7.53;;;2.55;;
27543;SDS011;17996;51.056;3.656;2024-03-29T08:50:58;9.07;;;2.65;;
27543;SDS011;17996;51.056;3.656;2024-03-29T08:53:27;8.20;;;2.90;;
27543;SDS011;17996;51.056;3.656;2024-03-29T08:55:59;7.97;;;3.08;;
27543;SDS011;17996;51.056;3.656;2024-03-29T08:58:31;4.70;;;2.28;;
27543;SDS011;17996;51.056;3.656;2024-03-29T09:01:00;7.63;;;3.13;;
27543;SDS011;17996;51.056;3.656;2024-03-29T09:05:59;8.45;;;3.22;;
27543;SDS011;17996;51.056;3.656;2024-03-29T09:10:56;5.75;;;2.55;;
27543;SDS011;17996;51.056;3.656;2024-03-29T09:13:23;4.50;;;2.53;;
27543;SDS011;17996;51.056;3.656;2024-03-29T09:15:49;5.97;;;2.83;;
27543;SDS011;17996;51.056;3.656;2024-03-29T09:20:59;6.35;;;2.85;;
27543;SDS011;17996;51.056;3.656;2024-03-29T09:23:28;7.75;;;2.35;;
27543;SDS011;17996;51.056;3.656;2024-03-29T09:28:25;6.43;;;2.50;;
27543;SDS011;17996;51.056;3.656;2024-03-29T09:30:58;4.53;;;3.00;;
27543;SDS011;17996;51.056;3.656;2024-03-29T09:35:54;6.95;;;3.13;;
27543;SDS011;17996;51.056;3.656;2024-03-29T09:38:20;4.97;;;2.45;;
27543;SDS011;17996;51.056;3.656;2024-03-29T09:40:46;6.05;;;3.15;;
27543;SDS011;17996;51.056;3.656;2024-03-29T09:45:47;8.07;;;4.35;;
27543;SDS011;17996;51.056;3.656;2024-03-29T09:48:14;6.28;;;3.17;;
27543;SDS011;17996;51.056;3.656;2024-03-29T09:50:40;5.18;;;2.55;;
27543;SDS011;17996;51.056;3.656;2024-03-29T09:53:08;9.85;;;2.80;;
27543;SDS011;17996;51.056;3.656;2024-03-29T09:55:35;4.97;;;2.15;;
27543;SDS011;17996;51.056;3.656;2024-03-29T09:58:02;3.15;;;1.80;;
27543;SDS011;17996;51.056;3.656;2024-03-29T10:00:31;6.97;;;2.40;;
27543;SDS011;17996;51.056;3.656;2024-03-29T10:03:00;3.35;;;2.08;;
27543;SDS011;17996;51.056;3.656;2024-03-29T10:05:27;4.70;;;2.22;;
27543;SDS011;17996;51.056;3.656;2024-03-29T10:07:55;7.43;;;2.15;;
27543;SDS011;17996;51.056;3.656;2024-03-29T10:10:22;3.65;;;1.60;;
27543;SDS011;17996;51.056;3.656;2024-03-29T10:12:48;5.50;;;2.17;;
27543;SDS011;17996;51.056;3.656;2024-03-29T10:15:14;4.05;;;1.65;;
27543;SDS011;17996;51.056;3.656;2024-03-29T10:17:49;7.45;;;2.33;;
27543;SDS011;17996;51.056;3.656;2024-03-29T10:20:18;5.50;;;2.08;;
27543;SDS011;17996;51.056;3.656;2024-03-29T10:22:46;6.07;;;1.90;;
27543;SDS011;17996;51.056;3.656;2024-03-29T10:25:12;6.18;;;1.95;;
27543;SDS011;17996;51.056;3.656;2024-03-29T10:27:38;2.85;;;2.13;;
27543;SDS011;17996;51.056;3.656;2024-03-29T10:30:06;3.15;;;1.92;;
27543;SDS011;17996;51.056;3.656;2024-03-29T10:32:36;5.30;;;2.25;;
27543;SDS011;17996;51.056;3.656;2024-03-29T10:35:05;7.68;;;2.25;;
27543;SDS011;17996;51.056;3.656;2024-03-29T10:37:32;6.97;;;2.80;;
27543;SDS011;17996;51.056;3.656;2024-03-29T10:40:04;2.08;;;1.50;;
27543;SDS011;17996;51.056;3.656;2024-03-29T10:42:32;4.63;;;1.83;;
27543;SDS011;17996;51.056;3.656;2024-03-29T10:45:04;3.60;;;1.85;;
27543;SDS011;17996;51.056;3.656;2024-03-29T10:47:31;4.55;;;2.35;;
27543;SDS011;17996;51.056;3.656;2024-03-29T10:49:58;3.70;;;1.92;;
27543;SDS011;17996;51.056;3.656;2024-03-29T10:52:25;4.10;;;2.05;;
27543;SDS011;17996;51.056;3.656;2024-03-29T10:54:51;3.47;;;1.67;;
27543;SDS011;17996;51.056;3.656;2024-03-29T11:02:51;9.00;;;1.83;;
27543;SDS011;17996;51.056;3.656;2024-03-29T11:05:48;3.83;;;1.83;;
27543;SDS011;17996;51.056;3.656;2024-03-29T11:08:26;5.93;;;1.85;;
27543;SDS011;17996;51.056;3.656;2024-03-29T11:10:58;5.18;;;1.73;;
27543;SDS011;17996;51.056;3.656;2024-03-29T11:13:33;3.35;;;1.40;;
27543;SDS011;17996;51.056;3.656;2024-03-29T11:16:08;2.60;;;1.42;;
27543;SDS011;17996;51.056;3.656;2024-03-29T11:18:35;4.22;;;1.75;;
27543;SDS011;17996;51.056;3.656;2024-03-29T11:21:08;3.33;;;1.40;;
27543;SDS011;17996;51.056;3.656;2024-03-29T11:23:37;5.75;;;1.92;;
27543;SDS011;17996;51.056;3.656;2024-03-29T11:26:04;3.28;;;1.33;;
27543;SDS011;17996;51.056;3.656;2024-03-29T11:28:35;3.35;;;1.55;;
27543;SDS011;17996;51.056;3.656;2024-03-29T11:31:05;4.45;;;1.63;;
27543;SDS011;17996;51.056;3.656;2024-03-29T11:33:43;3.85;;;1.52;;
27543;SDS011;17996;51.056;3.656;2024-03-29T11:38:37;2.83;;;1.48;;
27543;SDS011;17996;51.056;3.656;2024-03-29T11:41:04;2.15;;;1.10;;
27543;SDS011;17996;51.056;3.656;2024-03-29T11:43:31;4.05;;;1.25;;
27543;SDS011;17996;51.056;3.656;2024-03-29T11:45:59;1.77;;;0.90;;
27543;SDS011;17996;51.056;3.656;2024-03-29T11:48:29;2.38;;;1.02;;
27543;SDS011;17996;51.056;3.656;2024-03-29T11:50:58;1.95;;;1.13;;
27543;SDS011;17996;51.056;3.656;2024-03-29T11:53:26;3.17;;;1.23;;
27543;SDS011;17996;51.056;3.656;2024-03-29T11:55:53;3.22;;;0.95;;
27543;SDS011;17996;51.056;3.656;2024-03-29T11:58:23;2.88;;;1.10;;
27543;SDS011;17996;51.056;3.656;2024-03-29T12:00:50;2.75;;;1.20;;
27543;SDS011;17996;51.056;3.656;2024-03-29T12:03:18;1.67;;;0.98;;
27543;SDS011;17996;51.056;3.656;2024-03-29T12:08:21;2.58;;;1.00;;
27543;SDS011;17996;51.056;3.656;2024-03-29T12:10:47;3.03;;;1.17;;
27543;SDS011;17996;51.056;3.656;2024-03-29T12:13:15;1.42;;;1.00;;
27543;SDS011;17996;51.056;3.656;2024-03-29T12:15:42;1.75;;;0.90;;
27543;SDS011;17996;51.056;3.656;2024-03-29T12:18:10;3.60;;;1.10;;
27543;SDS011;17996;51.056;3.656;2024-03-29T12:20:39;2.17;;;1.00;;
27543;SDS011;17996;51.056;3.656;2024-03-29T12:23:06;1.52;;;1.00;;
27543;SDS011;17996;51.056;3.656;2024-03-29T12:25:37;4.07;;;1.10;;
27543;SDS011;17996;51.056;3.656;2024-03-29T12:30:30;6.10;;;1.10;;
27543;SDS011;17996;51.056;3.656;2024-03-29T12:33:01;5.25;;;1.00;;
27543;SDS011;17996;51.056;3.656;2024-03-29T12:35:28;3.08;;;1.13;;
27543;SDS011;17996;51.056;3.656;2024-03-29T12:38:04;3.80;;;1.55;;
27543;SDS011;17996;51.056;3.656;2024-03-29T12:40:34;6.30;;;1.83;;
27543;SDS011;17996;51.056;3.656;2024-03-29T12:43:04;5.63;;;1.48;;
27543;SDS011;17996;51.056;3.656;2024-03-29T12:45:34;3.97;;;1.10;;
27543;SDS011;17996;51.056;3.656;2024-03-29T12:48:14;4.55;;;1.13;;
27543;SDS011;17996;51.056;3.656;2024-03-29T12:53:18;1.85;;;1.20;;
27543;SDS011;17996;51.056;3.656;2024-03-29T12:55:45;4.00;;;1.60;;
27543;SDS011;17996;51.056;3.656;2024-03-29T12:58:15;3.33;;;1.02;;
27543;SDS011;17996;51.056;3.656;2024-03-29T13:00:44;8.32;;;1.27;;
27543;SDS011;17996;51.056;3.656;2024-03-29T13:03:12;1.42;;;0.90;;
27543;SDS011;17996;51.056;3.656;2024-03-29T13:05:38;2.35;;;1.10;;
27543;SDS011;17996;51.056;3.656;2024-03-29T13:08:09;2.40;;;1.10;;
27543;SDS011;17996;51.056;3.656;2024-03-29T13:10:40;3.33;;;1.20;;
27543;SDS011;17996;51.056;3.656;2024-03-29T13:13:07;4.03;;;1.30;;
27543;SDS011;17996;51.056;3.656;2024-03-29T13:15:34;2.63;;;1.23;;
27543;SDS011;17996;51.056;3.656;2024-03-29T13:18:01;5.10;;;1.58;;
27543;SDS011;17996;51.056;3.656;2024-03-29T13:20:28;2.38;;;0.90;;
27543;SDS011;17996;51.056;3.656;2024-03-29T13:22:55;4.13;;;1.10;;
27543;SDS011;17996;51.056;3.656;2024-03-29T13:25:25;2.38;;;0.95;;
27543;SDS011;17996;51.056;3.656;2024-03-29T13:27:54;3.33;;;0.90;;
27543;SDS011;17996;51.056;3.656;2024-03-29T13:30:20;2.58;;;0.70;;
27543;SDS011;17996;51.056;3.656;2024-03-29T13:32:47;4.93;;;1.13;;
27543;SDS011;17996;51.056;3.656;2024-03-29T13:35:13;3.05;;;1.15;;
27543;SDS011;17996;51.056;3.656;2024-03-29T13:37:40;6.25;;;1.38;;
27543;SDS011;17996;51.056;3.656;2024-03-29T13:40:14;2.72;;;1.17;;
27543;SDS011;17996;51.056;3.656;2024-03-29T13:42:41;3.60;;;1.08;;
27543;SDS011;17996;51.056;3.656;2024-03-29T13:45:08;4.38;;;1.25;;
27543;SDS011;17996;51.056;3.656;2024-03-29T13:47:41;3.47;;;1.10;;
27543;SDS011;17996;51.056;3.656;2024-03-29T13:50:08;5.57;;;1.25;;
27543;SDS011;17996;51.056;3.656;2024-03-29T13:52:35;2.35;;;1.17;;
27543;SDS011;17996;51.056;3.656;2024-03-29T13:55:02;3.72;;;1.05;;
27543;SDS011;17996;51.056;3.656;2024-03-29T13:57:28;3.15;;;1.20;;
27543;SDS011;17996;51.056;3.656;2024-03-29T13:59:54;6.15;;;0.98;;
27543;SDS011;17996;51.056;3.656;2024-03-29T14:02:20;1.40;;;0.90;;
27543;SDS011;17996;51.056;3.656;2024-03-29T14:04:47;2.05;;;1.00;;
27543;SDS011;17996;51.056;3.656;2024-03-29T14:07:14;3.10;;;0.90;;
27543;SDS011;17996;51.056;3.656;2024-03-29T14:09:42;2.00;;;0.68;;
27543;SDS011;17996;51.056;3.656;2024-03-29T14:14:37;1.98;;;0.93;;
27543;SDS011;17996;51.056;3.656;2024-03-29T14:17:03;1.52;;;0.77;;
27543;SDS011;17996;51.056;3.656;2024-03-29T14:19:30;3.20;;;0.85;;
27543;SDS011;17996;51.056;3.656;2024-03-29T14:21:57;1.75;;;1.20;;
27543;SDS011;17996;51.056;3.656;2024-03-29T14:24:23;5.22;;;1.10;;
27543;SDS011;17996;51.056;3.656;2024-03-29T14:26:50;1.63;;;1.20;;
27543;SDS011;17996;51.056;3.656;2024-03-29T14:29:17;3.55;;;1.33;;
27543;SDS011;17996;51.056;3.656;2024-03-29T14:31:46;2.15;;;0.85;;
27543;SDS011;17996;51.056;3.656;2024-03-29T14:34:15;2.50;;;1.00;;
27543;SDS011;17996;51.056;3.656;2024-03-29T14:36:42;3.05;;;1.10;;
27543;SDS011;17996;51.056;3.656;2024-03-29T14:39:11;2.67;;;0.88;;
27543;SDS011;17996;51.056;3.656;2024-03-29T14:41:40;3.30;;;0.98;;
27543;SDS011;17996;51.056;3.656;2024-03-29T14:44:07;2.50;;;1.30;;
27543;SDS011;17996;51.056;3.656;2024-03-29T14:46:33;5.60;;;0.95;;
27543;SDS011;17996;51.056;3.656;2024-03-29T14:49:02;2.47;;;1.02;;
27543;SDS011;17996;51.056;3.656;2024-03-29T14:51:33;3.97;;;1.35;;
27543;SDS011;17996;51.056;3.656;2024-03-29T14:54:00;3.45;;;0.90;;
27543;SDS011;17996;51.056;3.656;2024-03-29T14:56:29;5.63;;;1.00;;
27543;SDS011;17996;51.056;3.656;2024-03-29T14:59:05;2.13;;;1.02;;
27543;SDS011;17996;51.056;3.656;2024-03-29T15:01:34;1.85;;;0.95;;
27543;SDS011;17996;51.056;3.656;2024-03-29T15:04:00;5.35;;;1.13;;
27543;SDS011;17996;51.056;3.656;2024-03-29T15:06:26;5.25;;;1.50;;
27543;SDS011;17996;51.056;3.656;2024-03-29T15:08:53;5.13;;;1.40;;
27543;SDS011;17996;51.056;3.656;2024-03-29T15:11:20;3.10;;;1.30;;
27543;SDS011;17996;51.056;3.656;2024-03-29T15:13:47;6.93;;;1.20;;
27543;SDS011;17996;51.056;3.656;2024-03-29T15:16:13;1.70;;;0.90;;
27543;SDS011;17996;51.056;3.656;2024-03-29T15:18:39;3.28;;;0.93;;
27543;SDS011;17996;51.056;3.656;2024-03-29T15:21:04;5.80;;;1.27;;
27543;SDS011;17996;51.056;3.656;2024-03-29T15:23:30;4.63;;;1.25;;
27543;SDS011;17996;51.056;3.656;2024-03-29T15:25:57;5.60;;;1.10;;
27543;SDS011;17996;51.056;3.656;2024-03-29T15:28:24;3.60;;;1.50;;
27543;SDS011;17996;51.056;3.656;2024-03-29T15:31:10;3.38;;;1.13;;
27543;SDS011;17996;51.056;3.656;2024-03-29T15:33:37;4.50;;;1.08;;
27543;SDS011;17996;51.056;3.656;2024-03-29T15:36:03;4.75;;;1.45;;
27543;SDS011;17996;51.056;3.656;2024-03-29T15:38:30;3.88;;;1.90;;
27543;SDS011;17996;51.056;3.656;2024-03-29T15:40:56;3.47;;;1.25;;
27543;SDS011;17996;51.056;3.656;2024-03-29T15:43:28;2.83;;;1.00;;
27543;SDS011;17996;51.056;3.656;2024-03-29T15:45:54;5.47;;;1.42;;
27543;SDS011;17996;51.056;3.656;2024-03-29T15:48:22;9.40;;;1.23;;
27543;SDS011;17996;51.056;3.656;2024-03-29T15:50:49;3.83;;;1.02;;
27543;SDS011;17996;51.056;3.656;2024-03-29T15:53:18;6.18;;;1.67;;
27543;SDS011;17996;51.056;3.656;2024-03-29T15:55:44;5.47;;;1.60;;
27543;SDS011;17996;51.056;3.656;2024-03-29T15:58:12;7.70;;;1.65;;
27543;SDS011;17996;51.056;3.656;2024-03-29T16:00:38;3.88;;;1.27;;
27543;SDS011;17996;51.056;3.656;2024-03-29T16:03:11;2.22;;;1.23;;
27543;SDS011;17996;51.056;3.656;2024-03-29T16:05:44;7.05;;;1.50;;
27543;SDS011;17996;51.056;3.656;2024-03-29T16:08:11;4.70;;;1.08;;
27543;SDS011;17996;51.056;3.656;2024-03-29T16:13:23;3.70;;;1.20;;
27543;SDS011;17996;51.056;3.656;2024-03-29T16:15:50;4.60;;;1.40;;
27543;SDS011;17996;51.056;3.656;2024-03-29T16:18:17;7.03;;;1.10;;
27543;SDS011;17996;51.056;3.656;2024-03-29T16:20:44;5.93;;;1.20;;
27543;SDS011;17996;51.056;3.656;2024-03-29T16:23:11;4.85;;;1.98;;
27543;SDS011;17996;51.056;3.656;2024-03-29T16:25:38;4.95;;;1.73;;
27543;SDS011;17996;51.056;3.656;2024-03-29T16:28:06;6.40;;;1.25;;
27543;SDS011;17996;51.056;3.656;2024-03-29T16:30:43;5.85;;;1.50;;
27543;SDS011;17996;51.056;3.656;2024-03-29T16:33:09;2.72;;;0.93;;
27543;SDS011;17996;51.056;3.656;2024-03-29T16:35:35;3.85;;;1.20;;
27543;SDS011;17996;51.056;3.656;2024-03-29T16:38:02;5.05;;;1.33;;
27543;SDS011;17996;51.056;3.656;2024-03-29T16:40:28;4.22;;;1.30;;
27543;SDS011;17996;51.056;3.656;2024-03-29T16:42:55;5.05;;;1.00;;
27543;SDS011;17996;51.056;3.656;2024-03-29T16:45:22;3.10;;;1.35;;
27543;SDS011;17996;51.056;3.656;2024-03-29T16:47:51;6.60;;;1.48;;
27543;SDS011;17996;51.056;3.656;2024-03-29T16:50:16;8.77;;;1.48;;
27543;SDS011;17996;51.056;3.656;2024-03-29T16:52:42;2.75;;;1.13;;
27543;SDS011;17996;51.056;3.656;2024-03-29T16:55:08;2.90;;;1.20;;
27543;SDS011;17996;51.056;3.656;2024-03-29T16:57:35;4.20;;;1.00;;
27543;SDS011;17996;51.056;3.656;2024-03-29T17:00:01;5.47;;;1.25;;
27543;SDS011;17996;51.056;3.656;2024-03-29T17:02:28;5.88;;;1.20;;
27543;SDS011;17996;51.056;3.656;2024-03-29T17:04:54;6.88;;;1.88;;
27543;SDS011;17996;51.056;3.656;2024-03-29T17:07:20;3.13;;;1.30;;
27543;SDS011;17996;51.056;3.656;2024-03-29T17:09:45;4.40;;;1.42;;
27543;SDS011;17996;51.056;3.656;2024-03-29T17:12:11;2.33;;;1.17;;